Time;durP1;ratioP1;P1;durP2;ratioP2;P2;SDS_P1;SDS_P2;PMS_P1;PMS_P2;Temp;Humidity;BMP_temperature;BMP_pressure;BME280_temperature;BME280_humidity;BME280_pressure;Samples;Min_cycle;Max_cycle;Signal;HPM_P1;HPM_P2
2023/01/29 00:01:38;;;;;;;;;;;;;;;-1.85;61.03;99097.63;4910052;29;19931;-54
2023/01/29 00:04:06;;;;;;;;;;;;;;;-1.81;61.08;99106.84;4924882;29;19950;-55
2023/01/29 00:06:35;;;;;;;;;;;;;;;-1.85;61.29;99102.94;4917340;29;19933;-54
2023/01/29 00:09:03;;;;;;;;;;;;;;;-1.72;61.85;99097.63;4921846;29;19934;-56
2023/01/29 00:11:31;;;;;;;;;;;;;;;-1.63;60.65;99099.09;4915745;29;19953;-55
2023/01/29 00:13:59;;;;;;;;;;;;;;;-1.68;61.11;99108.72;4913349;29;19934;-55
2023/01/29 00:16:27;;;;;;;;;;;;;;;-1.78;60.95;99101.09;4911801;29;19927;-55
2023/01/29 00:18:55;;;;;;;;;;;;;;;-1.79;61.39;99107.47;4917465;29;19927;-55
2023/01/29 00:21:23;;;;;;;;;;;;;;;-1.61;60.88;99099.69;4931825;29;19934;-55
2023/01/29 00:23:54;;;;;;;;;;;;;;;-1.62;61.14;99105.22;4922004;29;19927;-55
2023/01/29 00:26:22;;;;;;;;;;;;;;;-1.58;60.67;99104.63;4916733;29;19933;-54
2023/01/29 00:28:50;;;;;;;;;;;;;;;-1.80;60.49;99095.16;4916399;29;20050;-55
2023/01/29 00:31:19;;;;;;;;;;;;;;;-1.97;60.90;99094.72;4911425;29;19946;-54
2023/01/29 00:33:47;;;;;;;;;;;;;;;-1.93;60.98;99103.13;4906221;29;19928;-54
2023/01/29 00:36:16;;;;;;;;;;;;;;;-1.91;61.01;99095.75;4931789;29;19927;-54
2023/01/29 00:38:45;;;;;;;;;;;;;;;-1.89;61.32;99085.72;4929711;29;20376;-55
2023/01/29 00:46:47;;;;;;;;;;;;;;;-1.98;61.15;99089.59;4909857;29;19927;-56
2023/01/29 00:49:17;;;;;;;;;;;;;;;-2.00;61.16;99091.66;4914408;29;19927;-55
2023/01/29 00:52:22;;;;;;;;;;;;;;;-1.88;61.19;99084.69;4927847;29;19927;-55
2023/01/29 00:54:34;;;;;;;;;;;;;;;-1.82;60.63;99086.53;4923438;29;19927;-55
2023/01/29 00:57:04;;;;;;;;;;;;;;;-1.88;60.70;99085.50;4900646;29;19927;-54
2023/01/29 00:59:32;;;;;;;;;;;;;;;-2.02;61.04;99085.72;4931469;29;19938;-54
2023/01/29 01:04:42;;;;;;;;;;;;;;;-1.99;61.86;99077.28;4908676;29;19950;-55
2023/01/29 01:07:13;;;;;;;;;;;;;;;-1.98;62.02;99084.25;4911458;29;19935;-55
2023/01/29 01:12:29;;;;;;;;;;;;;;;-2.00;60.72;99068.50;4914907;29;19967;-54
2023/01/29 01:14:57;;;;;;;;;;;;;;;-1.95;61.04;99078.53;4921157;29;20264;-54
2023/01/29 01:17:25;;;;;;;;;;;;;;;-2.04;61.03;99077.91;4896057;29;20370;-55
2023/01/29 01:19:53;;;;;;;;;;;;;;;-2.11;61.24;99093.03;4936962;29;19934;-54
2023/01/29 01:22:21;;;;;;;;;;;;;;;-2.02;61.01;99085.72;4915691;29;20277;-55
2023/01/29 01:24:49;;;;;;;;;;;;;;;-2.05;61.53;99083.44;4907787;29;19942;-55
2023/01/29 01:27:18;;;;;;;;;;;;;;;-2.00;61.52;99079.16;4915367;29;20018;-54
2023/01/29 01:29:49;;;;;;;;;;;;;;;-2.06;61.53;99079.13;4912778;29;20026;-54
2023/01/29 01:32:18;;;;;;;;;;;;;;;-2.13;61.32;99087.94;4911577;29;19974;-54
2023/01/29 01:34:46;;;;;;;;;;;;;;;-2.11;60.96;99072.56;4937149;29;19927;-54
2023/01/29 01:37:14;;;;;;;;;;;;;;;-2.11;61.01;99077.06;4898624;29;19927;-54
2023/01/29 01:39:42;;;;;;;;;;;;;;;-2.10;61.25;99073.38;4929162;29;19934;-55
2023/01/29 01:42:12;;;;;;;;;;;;;;;-2.07;61.08;99077.50;4919348;29;19969;-54
2023/01/29 01:44:55;;;;;;;;;;;;;;;-2.15;61.01;99084.63;4912058;29;19927;-54
2023/01/29 01:47:30;;;;;;;;;;;;;;;-2.15;61.13;99083.81;4907472;29;19934;-54
2023/01/29 01:50:00;;;;;;;;;;;;;;;-2.14;61.28;99075.63;4914033;29;20400;-55
2023/01/29 01:52:30;;;;;;;;;;;;;;;-2.01;61.58;99090.00;4928287;29;19942;-54
2023/01/29 01:54:58;;;;;;;;;;;;;;;-2.03;61.12;99078.72;4922213;29;19927;-54
2023/01/29 01:57:26;;;;;;;;;;;;;;;-2.13;61.51;99077.28;4902544;29;19927;-54
2023/01/29 01:59:57;;;;;;;;;;;;;;;-2.12;60.93;99080.75;4898680;29;19927;-54
2023/01/29 02:10:47;;;;;;;;;;;;;;;-2.43;61.65;99084.75;4926629;29;19927;-55
2023/01/29 02:13:17;;;;;;;;;;;;;;;-2.51;61.92;99084.09;4919502;29;19927;-54
2023/01/29 02:15:47;;;;;;;;;;;;;;;-2.43;61.10;99084.75;4909659;29;19928;-55
2023/01/29 02:18:16;;;;;;;;;;;;;;;-2.49;62.18;99084.72;4915771;29;19928;-55
2023/01/29 02:20:47;;;;;;;;;;;;;;;-2.27;61.23;99082.75;4911412;29;20419;-55
2023/01/29 02:23:43;;;;;;;;;;;;;;;-2.38;61.31;99084.16;4914692;29;19934;-55
2023/01/29 02:26:29;;;;;;;;;;;;;;;-2.38;61.65;99084.97;4857993;29;19974;-54
2023/01/29 02:29:21;;;;;;;;;;;;;;;-2.54;62.25;99082.66;4902198;29;19935;-54
2023/01/29 02:31:52;;;;;;;;;;;;;;;-2.52;61.80;99075.28;4906797;29;19931;-55
2023/01/29 02:34:23;;;;;;;;;;;;;;;-2.46;61.52;99079.00;4917233;29;19935;-55
2023/01/29 02:36:52;;;;;;;;;;;;;;;-2.48;61.52;99071.22;4928406;29;19966;-55
2023/01/29 02:39:22;;;;;;;;;;;;;;;-2.51;62.10;99066.28;4909968;29;20312;-55
2023/01/29 02:41:53;;;;;;;;;;;;;;;-2.39;61.93;99067.38;4910717;29;19935;-54
2023/01/29 02:44:23;;;;;;;;;;;;;;;-2.38;61.84;99070.84;4914436;29;20288;-54
2023/01/29 02:46:52;;;;;;;;;;;;;;;-2.47;61.84;99062.22;4910463;29;19954;-54
2023/01/29 02:49:22;;;;;;;;;;;;;;;-2.38;61.63;99065.53;4914129;29;19937;-54
2023/01/29 02:51:51;;;;;;;;;;;;;;;-2.38;61.98;99065.53;4912818;29;20312;-55
2023/01/29 02:54:22;;;;;;;;;;;;;;;-2.29;61.11;99064.34;4915164;29;19935;-55
2023/01/29 02:56:52;;;;;;;;;;;;;;;-2.24;61.03;99069.84;4933092;29;19931;-54
2023/01/29 02:59:20;;;;;;;;;;;;;;;-2.26;61.21;99074.56;4916175;29;19931;-54
2023/01/29 03:01:50;;;;;;;;;;;;;;;-2.37;60.95;99069.81;4886908;29;19938;-54
2023/01/29 03:04:19;;;;;;;;;;;;;;;-2.35;61.07;99067.78;4939484;29;19969;-54
2023/01/29 03:09:44;;;;;;;;;;;;;;;-2.54;61.08;99065.88;4914286;29;19935;-54
2023/01/29 03:12:27;;;;;;;;;;;;;;;-2.52;61.30;99077.13;4933440;29;19931;-54
2023/01/29 03:15:12;;;;;;;;;;;;;;;-2.49;61.78;99082.88;4921416;29;19931;-54
2023/01/29 03:17:47;;;;;;;;;;;;;;;-2.48;61.40;99087.19;4926125;29;19950;-54
2023/01/29 03:20:16;;;;;;;;;;;;;;;-2.47;61.93;99088.81;4928989;29;20377;-61
2023/01/29 03:22:45;;;;;;;;;;;;;;;-2.46;61.41;99086.97;4896775;29;20010;-54
2023/01/29 03:36:38;;;;;;;;;;;;;;;-2.61;61.99;99086.28;4911935;29;19927;-54
2023/01/29 03:39:07;;;;;;;;;;;;;;;-2.53;61.34;99097.59;4930319;29;20288;-54
2023/01/29 03:41:36;;;;;;;;;;;;;;;-2.67;61.74;99102.03;4904964;29;19927;-54
2023/01/29 03:44:09;;;;;;;;;;;;;;;-2.73;61.85;99094.81;4926244;29;19935;-54
2023/01/29 03:46:38;;;;;;;;;;;;;;;-2.70;62.29;99098.94;4921990;29;19942;-54
2023/01/29 03:52:28;;;;;;;;;;;;;;;-2.60;61.85;99087.94;4928000;29;19934;-54
2023/01/29 03:54:58;;;;;;;;;;;;;;;-2.60;61.59;99093.28;4924727;29;19994;-54
2023/01/29 03:57:31;;;;;;;;;;;;;;;-2.69;61.79;99096.09;4913323;29;19927;-55
2023/01/29 04:00:03;;;;;;;;;;;;;;;-2.72;61.75;99095.66;4915953;29;19934;-54
2023/01/29 04:02:46;;;;;;;;;;;;;;;-2.70;62.63;99094.44;4914575;29;19927;-54
2023/01/29 04:05:17;;;;;;;;;;;;;;;-2.63;62.25;99100.63;4923777;29;19928;-54
2023/01/29 04:07:58;;;;;;;;;;;;;;;-2.57;62.00;99103.50;4918742;29;19931;-55
2023/01/29 04:10:27;;;;;;;;;;;;;;;-2.48;61.66;99097.00;4906625;29;19927;-54
2023/01/29 04:12:56;;;;;;;;;;;;;;;-2.49;61.60;99092.72;4939257;29;19943;-54
2023/01/29 04:15:26;;;;;;;;;;;;;;;-2.58;61.81;99109.84;4887735;29;20963;-55
2023/01/29 04:17:54;;;;;;;;;;;;;;;-2.59;61.55;99113.53;4916796;29;19927;-54
2023/01/29 04:20:33;;;;;;;;;;;;;;;-2.59;61.89;99110.88;4898235;29;20365;-54
2023/01/29 04:23:01;;;;;;;;;;;;;;;-2.43;61.44;99102.56;4913111;29;19931;-54
2023/01/29 04:25:31;;;;;;;;;;;;;;;-2.50;61.61;99109.69;4926697;29;19934;-55
2023/01/29 04:28:02;;;;;;;;;;;;;;;-2.53;61.82;99102.09;4914494;29;19958;-54
2023/01/29 04:30:35;;;;;;;;;;;;;;;-2.57;61.94;99098.19;4909395;29;20018;-55
2023/01/29 04:33:04;;;;;;;;;;;;;;;-2.49;62.13;99096.19;4931770;29;20392;-54
2023/01/29 04:35:36;;;;;;;;;;;;;;;-2.50;61.36;99083.09;4906108;29;19934;-54
2023/01/29 04:38:07;;;;;;;;;;;;;;;-2.45;61.47;99094.78;4925709;29;19927;-54
2023/01/29 04:40:37;;;;;;;;;;;;;;;-2.38;60.69;99100.13;4913359;29;19927;-55
2023/01/29 04:43:06;;;;;;;;;;;;;;;-2.42;60.60;99091.69;4912030;29;19928;-54
2023/01/29 04:45:36;;;;;;;;;;;;;;;-2.48;61.38;99091.69;4910785;29;19927;-54
2023/01/29 04:48:08;;;;;;;;;;;;;;;-2.48;60.52;99100.47;4924563;29;19942;-54
2023/01/29 04:50:38;;;;;;;;;;;;;;;-2.48;61.73;99108.47;4911392;29;19927;-54
2023/01/29 04:53:07;;;;;;;;;;;;;;;-2.44;61.11;99104.41;4917213;29;20020;-54
2023/01/29 04:55:36;;;;;;;;;;;;;;;-2.45;61.46;99101.91;4915039;29;19935;-54
2023/01/29 04:58:05;;;;;;;;;;;;;;;-2.33;61.11;99104.84;4914900;29;19936;-54
2023/01/29 05:00:34;;;;;;;;;;;;;;;-2.38;61.37;99100.13;4928558;29;20026;-55
2023/01/29 05:03:03;;;;;;;;;;;;;;;-2.35;60.71;99094.38;4918039;29;19926;-54
2023/01/29 05:05:31;;;;;;;;;;;;;;;-2.38;60.91;99087.63;4908989;29;19932;-54
2023/01/29 05:08:00;;;;;;;;;;;;;;;-2.47;59.99;99075.50;4929367;29;19931;-54
2023/01/29 05:10:29;;;;;;;;;;;;;;;-2.78;61.68;99081.28;4924332;29;19934;-55
2023/01/29 05:12:58;;;;;;;;;;;;;;;-2.71;61.60;99076.84;4909846;29;20010;-54
2023/01/29 05:15:26;;;;;;;;;;;;;;;-2.56;61.41;99075.88;4910265;29;19928;-54
2023/01/29 05:18:01;;;;;;;;;;;;;;;-2.43;61.19;99086.59;4916255;29;19927;-54
2023/01/29 05:20:55;;;;;;;;;;;;;;;-2.51;61.12;99082.25;4923402;29;20020;-55
2023/01/29 05:23:24;;;;;;;;;;;;;;;-2.56;61.51;99084.69;4922488;29;21004;-54
2023/01/29 05:25:52;;;;;;;;;;;;;;;-2.38;61.13;99084.97;4916544;29;19943;-54
2023/01/29 05:28:22;;;;;;;;;;;;;;;-2.34;61.18;99082.75;4914606;29;20392;-54
2023/01/29 05:30:50;;;;;;;;;;;;;;;-2.28;60.83;99084.59;4926358;29;19927;-54
2023/01/29 05:33:19;;;;;;;;;;;;;;;-2.38;61.32;99071.66;4913344;29;20377;-54
2023/01/29 05:35:47;;;;;;;;;;;;;;;-2.35;60.50;99070.44;4908699;29;19927;-54
2023/01/29 05:38:16;;;;;;;;;;;;;;;-2.60;61.69;99053.38;4932232;29;19933;-54
2023/01/29 05:40:45;;;;;;;;;;;;;;;-2.31;61.75;99061.03;4909991;29;19927;-55
2023/01/29 05:43:17;;;;;;;;;;;;;;;-2.22;61.25;99048.38;4924587;29;19927;-54
2023/01/29 05:45:51;;;;;;;;;;;;;;;-2.35;61.34;99051.81;4908715;29;19934;-54
2023/01/29 05:48:19;;;;;;;;;;;;;;;-2.25;61.56;99046.91;4913222;29;19965;-54
2023/01/29 05:50:47;;;;;;;;;;;;;;;-2.21;61.33;99028.72;4911040;29;20147;-55
2023/01/29 05:53:15;;;;;;;;;;;;;;;-2.12;61.32;99038.97;4919858;29;20025;-54
2023/01/29 05:55:44;;;;;;;;;;;;;;;-2.11;60.95;99035.28;4908850;29;19953;-54
2023/01/29 05:58:13;;;;;;;;;;;;;;;-2.17;60.75;99041.44;4909770;29;19939;-54
2023/01/29 06:00:41;;;;;;;;;;;;;;;-2.23;60.62;99028.91;4898845;29;19927;-54
2023/01/29 06:03:09;;;;;;;;;;;;;;;-2.35;60.39;99038.50;4897658;29;19997;-55
2023/01/29 06:05:37;;;;;;;;;;;;;;;-2.43;61.02;99030.72;4909124;29;19927;-55
2023/01/29 06:08:08;;;;;;;;;;;;;;;-2.37;61.29;99024.56;4910659;29;19931;-55
2023/01/29 06:10:36;;;;;;;;;;;;;;;-2.39;61.65;99031.97;4917044;29;19934;-54
2023/01/29 06:13:04;;;;;;;;;;;;;;;-2.21;61.22;99032.19;4909131;29;19982;-55
2023/01/29 06:15:34;;;;;;;;;;;;;;;-2.12;60.55;99038.97;4917940;29;20019;-55
2023/01/29 06:20:54;;;;;;;;;;;;;;;-2.23;61.31;99042.22;4908046;29;19950;-55
2023/01/29 06:23:23;;;;;;;;;;;;;;;-2.28;61.47;99044.69;4914857;29;19931;-55
2023/01/29 06:25:51;;;;;;;;;;;;;;;-2.21;61.06;99040.19;4905489;29;19931;-55
2023/01/29 06:28:19;;;;;;;;;;;;;;;-2.08;60.82;99044.69;4902013;29;19937;-55
2023/01/29 06:30:48;;;;;;;;;;;;;;;-2.06;60.61;99042.69;4898897;29;19936;-55
2023/01/29 06:33:16;;;;;;;;;;;;;;;-2.22;60.90;99049.19;4908066;29;19927;-54
2023/01/29 06:35:44;;;;;;;;;;;;;;;-2.30;61.23;99043.22;4900354;29;19935;-55
2023/01/29 06:38:13;;;;;;;;;;;;;;;-2.23;61.53;99039.56;4901428;29;19947;-55
2023/01/29 06:40:41;;;;;;;;;;;;;;;-2.02;61.63;99045.75;4907181;29;20006;-56
2023/01/29 06:43:09;;;;;;;;;;;;;;;-2.20;61.78;99049.81;4903855;29;20381;-55
2023/01/29 06:45:37;;;;;;;;;;;;;;;-2.01;61.18;99050.88;4894261;29;19966;-54
2023/01/29 06:48:07;;;;;;;;;;;;;;;-1.95;60.49;99054.56;4905340;29;20062;-54
2023/01/29 06:50:35;;;;;;;;;;;;;;;-2.06;60.47;99058.66;4905029;29;19934;-54
2023/01/29 06:53:03;;;;;;;;;;;;;;;-2.20;61.48;99057.78;4906295;29;19938;-54
2023/01/29 06:55:30;;;;;;;;;;;;;;;-2.07;61.20;99057.03;4903981;29;19931;-55
2023/01/29 06:57:59;;;;;;;;;;;;;;;-2.05;61.22;99073.59;4904103;29;19971;-54
2023/01/29 07:00:27;;;;;;;;;;;;;;;-2.09;60.69;99077.69;4897760;29;19994;-54
2023/01/29 07:02:57;;;;;;;;;;;;;;;-1.92;60.66;99073.66;4902048;29;19942;-54
2023/01/29 07:05:27;;;;;;;;;;;;;;;-1.98;60.66;99071.75;4911338;29;19935;-54
2023/01/29 07:07:55;;;;;;;;;;;;;;;-2.15;61.65;99070.50;4920460;29;19927;-54
2023/01/29 07:10:22;;;;;;;;;;;;;;;-1.82;60.89;99075.88;4908899;29;19931;-54
2023/01/29 07:12:50;;;;;;;;;;;;;;;-1.81;60.63;99072.22;4911247;29;19926;-54
2023/01/29 07:15:20;;;;;;;;;;;;;;;-2.04;60.83;99082.41;4908377;29;20022;-54
2023/01/29 07:17:57;;;;;;;;;;;;;;;-1.90;60.85;99084.09;4915847;29;20044;-54
2023/01/29 07:20:27;;;;;;;;;;;;;;;-1.92;60.18;99083.44;4919114;29;19928;-54
2023/01/29 07:22:56;;;;;;;;;;;;;;;-1.91;60.16;99083.28;4915317;29;19930;-54
2023/01/29 07:25:25;;;;;;;;;;;;;;;-2.09;61.00;99080.34;4915103;29;20297;-54
2023/01/29 07:27:53;;;;;;;;;;;;;;;-1.96;60.79;99080.38;4917374;29;20032;-54
2023/01/29 07:30:21;;;;;;;;;;;;;;;-1.85;61.02;99076.31;4919745;29;19927;-53
2023/01/29 07:32:48;;;;;;;;;;;;;;;-1.68;60.74;99079.41;4918874;29;19938;-53
2023/01/29 07:35:18;;;;;;;;;;;;;;;-1.52;60.74;99081.66;4919272;29;20399;-52
2023/01/29 07:37:50;;;;;;;;;;;;;;;-1.42;60.06;99081.25;4913215;29;19933;-53
2023/01/29 07:40:18;;;;;;;;;;;;;;;-1.51;59.33;99077.97;4896651;29;19933;-53
2023/01/29 07:42:46;;;;;;;;;;;;;;;-1.53;59.52;99079.22;4913953;29;20403;-52
2023/01/29 07:45:14;;;;;;;;;;;;;;;-1.50;59.09;99079.59;4904230;29;19932;-52
2023/01/29 07:47:43;;;;;;;;;;;;;;;-1.60;59.70;99074.72;4911438;29;19927;-52
2023/01/29 07:50:11;;;;;;;;;;;;;;;-1.55;59.51;99081.25;4902760;29;19928;-53
2023/01/29 07:52:39;;;;;;;;;;;;;;;-1.46;58.96;99093.34;4910599;29;20411;-52
2023/01/29 07:55:09;;;;;;;;;;;;;;;-1.57;59.12;99089.44;4913938;29;19934;-52
2023/01/29 07:57:37;;;;;;;;;;;;;;;-1.54;58.41;99088.25;4928288;29;19950;-52
2023/01/29 08:00:05;;;;;;;;;;;;;;;-1.57;59.21;99097.44;4911979;29;19927;-52
2023/01/29 08:02:38;;;;;;;;;;;;;;;-1.65;59.10;99098.47;4909880;29;19931;-53
2023/01/29 08:05:08;;;;;;;;;;;;;;;-1.55;59.31;99107.91;4913439;29;19935;-52
2023/01/29 08:07:36;;;;;;;;;;;;;;;-1.44;58.85;99115.28;4912376;29;19931;-53
2023/01/29 08:10:04;;;;;;;;;;;;;;;-1.59;58.88;99116.31;4908600;29;19931;-52
2023/01/29 08:12:33;;;;;;;;;;;;;;;-1.64;58.70;99116.09;4902286;29;20329;-53
2023/01/29 08:15:03;;;;;;;;;;;;;;;-1.49;58.66;99118.59;4909636;29;19934;-52
2023/01/29 08:17:31;;;;;;;;;;;;;;;-1.61;58.48;99115.69;4909993;29;19927;-52
2023/01/29 08:19:59;;;;;;;;;;;;;;;-1.65;59.43;99117.13;4915444;29;19942;-53
2023/01/29 08:22:27;;;;;;;;;;;;;;;-1.58;58.58;99115.28;4920118;29;19927;-53
2023/01/29 08:27:52;;;;;;;;;;;;;;;-1.55;58.51;99126.53;4910214;29;19988;-52
2023/01/29 08:30:20;;;;;;;;;;;;;;;-1.49;58.66;99123.91;4905589;29;19937;-53
2023/01/29 08:32:47;;;;;;;;;;;;;;;-1.47;57.80;99126.38;4915915;29;20325;-52
2023/01/29 08:35:15;;;;;;;;;;;;;;;-1.70;58.81;99116.91;4913181;29;19935;-53
2023/01/29 08:37:44;;;;;;;;;;;;;;;-1.65;59.08;99117.13;4915329;29;20698;-53
2023/01/29 08:40:12;;;;;;;;;;;;;;;-1.47;57.57;99116.53;4917658;29;19927;-53
2023/01/29 08:42:42;;;;;;;;;;;;;;;-1.55;59.11;99118.56;4916158;29;19927;-53
2023/01/29 08:45:14;;;;;;;;;;;;;;;-1.25;58.05;99121.66;4895078;29;20026;-52
2023/01/29 08:47:45;;;;;;;;;;;;;;;-1.28;58.05;99125.53;4898150;29;20088;-53
2023/01/29 08:50:13;;;;;;;;;;;;;;;-1.15;58.33;99127.41;4918436;29;19935;-53
2023/01/29 08:52:41;;;;;;;;;;;;;;;-1.05;57.18;99125.13;4919074;29;19927;-53
2023/01/29 08:55:09;;;;;;;;;;;;;;;-1.02;57.47;99129.22;4920841;29;19934;-52
2023/01/29 08:57:37;;;;;;;;;;;;;;;-0.99;57.37;99131.50;4919365;29;20380;-52
2023/01/29 09:00:06;;;;;;;;;;;;;;;-1.06;57.11;99129.66;4905262;29;19931;-52
2023/01/29 09:02:37;;;;;;;;;;;;;;;-1.04;57.93;99117.97;4915320;29;20278;-52
2023/01/29 09:05:06;;;;;;;;;;;;;;;-0.79;57.25;99108.28;4930682;29;19946;-53
2023/01/29 09:07:33;;;;;;;;;;;;;;;-0.68;56.75;99118.31;4920244;29;19937;-52
2023/01/29 09:12:54;;;;;;;;;;;;;;;-0.73;56.75;99117.28;4918641;29;19931;-52
2023/01/29 09:15:22;;;;;;;;;;;;;;;-0.82;56.92;99116.69;4914522;29;19935;-53
2023/01/29 09:17:52;;;;;;;;;;;;;;;-0.76;56.90;99118.50;4912094;29;19975;-52
2023/01/29 09:20:20;;;;;;;;;;;;;;;-0.84;56.75;99116.91;4929412;29;19998;-53
2023/01/29 09:22:50;;;;;;;;;;;;;;;-0.77;56.61;99118.72;4904823;29;19938;-52
2023/01/29 09:25:26;;;;;;;;;;;;;;;-0.70;57.09;99128.34;4919611;29;19942;-52
2023/01/29 09:27:54;;;;;;;;;;;;;;;-0.64;56.71;99122.22;4908794;29;20361;-52
2023/01/29 09:30:22;;;;;;;;;;;;;;;-0.73;56.78;99125.31;4903496;29;20435;-53
2023/01/29 09:32:50;;;;;;;;;;;;;;;-0.68;57.17;99115.66;4921999;29;19971;-53
2023/01/29 09:35:46;;;;;;;;;;;;;;;-0.58;56.70;99115.22;4915827;29;21719;-52
2023/01/29 09:38:16;;;;;;;;;;;;;;;-0.66;56.76;99105.56;4920144;29;19931;-53
2023/01/29 09:40:49;;;;;;;;;;;;;;;-0.66;56.70;99108.22;4915506;29;20391;-53
2023/01/29 09:43:18;;;;;;;;;;;;;;;-0.72;56.95;99103.75;4921632;29;20340;-53
2023/01/29 09:45:50;;;;;;;;;;;;;;;-0.66;57.13;99094.88;4911951;29;21159;-53
2023/01/29 09:48:17;;;;;;;;;;;;;;;-0.65;56.60;99099.19;4913225;29;19931;-53
2023/01/29 09:50:46;;;;;;;;;;;;;;;-0.59;57.18;99095.69;4918735;29;19928;-53
2023/01/29 09:53:17;;;;;;;;;;;;;;;-0.75;56.90;99090.81;4900410;29;19938;-52
2023/01/29 09:55:45;;;;;;;;;;;;;;;-0.60;56.94;99086.03;4913166;29;20295;-52
2023/01/29 09:58:14;;;;;;;;;;;;;;;-0.59;56.85;99086.84;4916640;29;19935;-53
2023/01/29 10:00:44;;;;;;;;;;;;;;;-0.71;56.75;99089.34;4903843;29;20288;-52
2023/01/29 10:03:17;;;;;;;;;;;;;;;-0.62;57.21;99082.78;4915057;29;19935;-52
2023/01/29 10:05:51;;;;;;;;;;;;;;;-0.69;57.32;99073.13;4914283;29;20410;-52
2023/01/29 10:08:27;;;;;;;;;;;;;;;-0.71;58.08;99078.69;4911110;29;19932;-53
2023/01/29 10:10:55;;;;;;;;;;;;;;;-0.61;57.38;99079.06;4910932;29;20436;-52
2023/01/29 10:13:27;;;;;;;;;;;;;;;-0.40;56.67;99079.81;4921784;29;19971;-53
2023/01/29 10:15:59;;;;;;;;;;;;;;;-0.39;56.63;99081.44;4914222;29;19962;-52
2023/01/29 10:18:34;;;;;;;;;;;;;;;-0.47;56.60;99090.53;4915862;29;19931;-52
2023/01/29 10:21:05;;;;;;;;;;;;;;;-0.39;56.38;99098.28;4934209;29;19927;-56
2023/01/29 10:23:57;;;;;;;;;;;;;;;-0.48;56.66;99104.06;4919892;29;19927;-52
2023/01/29 10:26:26;;;;;;;;;;;;;;;-0.51;57.09;99091.97;4910500;29;19953;-56
2023/01/29 10:28:55;;;;;;;;;;;;;;;-0.47;56.76;99079.84;4898705;29;19985;-52
2023/01/29 10:31:26;;;;;;;;;;;;;;;-0.40;56.45;99071.81;4932568;29;19934;-52
2023/01/29 10:33:55;;;;;;;;;;;;;;;-0.44;56.41;99075.94;4923107;29;19931;-53
2023/01/29 10:36:33;;;;;;;;;;;;;;;-0.31;56.15;99090.06;4910275;29;19927;-52
2023/01/29 10:39:01;;;;;;;;;;;;;;;-0.22;56.13;99103.97;4929571;29;19931;-53
2023/01/29 10:41:44;;;;;;;;;;;;;;;-0.32;55.88;99104.44;4927566;29;20276;-52
2023/01/29 10:44:17;;;;;;;;;;;;;;;-0.32;55.98;99106.25;4883560;29;19983;-52
2023/01/29 10:46:50;;;;;;;;;;;;;;;-0.31;55.64;99115.94;4892593;29;19928;-52
2023/01/29 10:49:43;;;;;;;;;;;;;;;-0.38;56.28;99109.78;4932857;29;19927;-52
2023/01/29 10:52:21;;;;;;;;;;;;;;;-0.50;56.63;99106.97;4900547;29;19935;-52
2023/01/29 10:54:53;;;;;;;;;;;;;;;-0.68;56.53;99088.94;4894055;29;19934;-52
2023/01/29 10:57:46;;;;;;;;;;;;;;;-0.51;56.57;99083.16;4894367;29;19928;-57
2023/01/29 11:00:17;;;;;;;;;;;;;;;-0.52;56.20;99085.00;4916765;29;19934;-53
2023/01/29 11:02:47;;;;;;;;;;;;;;;-0.47;56.44;99079.03;4904538;29;19931;-52
2023/01/29 11:05:18;;;;;;;;;;;;;;;-0.50;56.08;99074.09;4909072;29;19959;-52
2023/01/29 11:07:46;;;;;;;;;;;;;;;-0.50;56.16;99063.44;4908273;29;19927;-52
2023/01/29 11:10:16;;;;;;;;;;;;;;;-0.61;56.43;99051.56;4906011;29;19934;-52
2023/01/29 11:12:44;;;;;;;;;;;;;;;-0.52;56.42;99049.50;4907102;29;19931;-52
2023/01/29 11:15:15;;;;;;;;;;;;;;;-0.36;56.13;99052.50;4894732;29;20024;-53
2023/01/29 11:17:59;;;;;;;;;;;;;;;-0.35;55.83;99051.44;4893922;29;19927;-52
2023/01/29 11:21:01;;;;;;;;;;;;;;;-0.30;56.18;99027.59;4890645;29;19928;-52
2023/01/29 11:23:30;;;;;;;;;;;;;;;-0.21;56.05;99022.00;4920473;29;19934;-53
2023/01/29 11:25:59;;;;;;;;;;;;;;;-0.29;56.03;99013.22;4892321;29;19931;-52
2023/01/29 11:28:37;;;;;;;;;;;;;;;-0.32;56.72;99002.97;4891813;29;19932;-52
2023/01/29 11:31:15;;;;;;;;;;;;;;;-0.19;55.60;99002.06;4920357;29;19928;-52
2023/01/29 11:33:43;;;;;;;;;;;;;;;-0.25;55.30;98992.25;4889138;29;19959;-52
2023/01/29 11:36:38;;;;;;;;;;;;;;;-0.46;56.12;98984.56;4886218;29;19982;-52
2023/01/29 11:39:11;;;;;;;;;;;;;;;-0.36;56.14;98982.25;4897502;29;19928;-52
2023/01/29 11:41:43;;;;;;;;;;;;;;;-0.28;55.73;98971.31;4888238;29;19936;-53
2023/01/29 11:44:29;;;;;;;;;;;;;;;-0.22;55.57;98969.63;4921038;29;19931;-52
2023/01/29 11:46:59;;;;;;;;;;;;;;;-0.08;54.89;98977.34;4911292;29;20018;-52
2023/01/29 11:49:52;;;;;;;;;;;;;;;-0.18;54.83;98968.16;4920123;29;19927;-52
2023/01/29 11:52:22;;;;;;;;;;;;;;;-0.07;54.89;98968.28;4922748;29;19926;-52
2023/01/29 11:54:53;;;;;;;;;;;;;;;-0.11;55.03;98967.06;4914156;29;19938;-52
2023/01/29 11:57:46;;;;;;;;;;;;;;;-0.05;54.81;98958.22;4899476;29;19935;-52
2023/01/29 12:00:18;;;;;;;;;;;;;;;0.11;55.26;98964.06;4924158;29;19927;-52
2023/01/29 12:02:47;;;;;;;;;;;;;;;0.09;54.67;98964.25;4922444;29;20285;-52
2023/01/29 12:05:16;;;;;;;;;;;;;;;0.12;55.14;98961.16;4904963;29;20010;-52
2023/01/29 12:07:47;;;;;;;;;;;;;;;-0.01;54.83;98953.22;4919906;29;20347;-52
2023/01/29 12:10:30;;;;;;;;;;;;;;;0.24;54.62;98947.91;4916202;29;19931;-52
2023/01/29 12:13:06;;;;;;;;;;;;;;;0.26;54.58;98945.81;4912305;29;19927;-52
2023/01/29 12:15:34;;;;;;;;;;;;;;;0.06;54.08;98945.19;4913799;29;19935;-52
2023/01/29 12:18:04;;;;;;;;;;;;;;;0.14;54.62;98939.56;4917716;29;19928;-52
2023/01/29 12:21:23;;;;;;;;;;;;;;;0.20;53.85;98928.00;4910185;29;19943;-52
2023/01/29 12:24:22;;;;;;;;;;;;;;;0.17;54.27;98920.44;4906249;29;19928;-57
2023/01/29 12:26:51;;;;;;;;;;;;;;;0.09;54.45;98924.19;4913062;29;20083;-52
2023/01/29 12:29:23;;;;;;;;;;;;;;;0.09;54.47;98920.69;4915158;29;19936;-53
2023/01/29 12:31:53;;;;;;;;;;;;;;;-0.05;54.94;98912.00;4903872;29;19931;-53
2023/01/29 12:34:23;;;;;;;;;;;;;;;0.02;54.97;98907.41;4918895;29;20444;-53
2023/01/29 12:36:52;;;;;;;;;;;;;;;0.14;54.99;98916.31;4899595;29;19931;-53
2023/01/29 12:39:22;;;;;;;;;;;;;;;0.12;54.46;98912.25;4929806;29;19935;-52
2023/01/29 12:41:52;;;;;;;;;;;;;;;0.10;54.59;98912.44;4919186;29;19939;-52
2023/01/29 12:44:21;;;;;;;;;;;;;;;0.13;54.88;98897.84;4916747;29;19943;-52
2023/01/29 12:46:51;;;;;;;;;;;;;;;0.23;54.81;98887.47;4916181;29;19931;-52
2023/01/29 12:52:15;;;;;;;;;;;;;;;0.31;54.16;98879.16;4917083;29;19935;-52
2023/01/29 12:54:46;;;;;;;;;;;;;;;0.29;54.53;98870.56;4902104;29;20017;-52
2023/01/29 12:57:18;;;;;;;;;;;;;;;0.24;54.81;98876.56;4931747;29;19978;-52
2023/01/29 13:00:11;;;;;;;;;;;;;;;0.29;54.60;98875.91;4915270;29;20074;-52
2023/01/29 13:02:45;;;;;;;;;;;;;;;0.39;54.33;98876.22;4922863;29;19942;-52
2023/01/29 13:05:17;;;;;;;;;;;;;;;0.39;54.54;98870.88;4918899;29;19927;-52
2023/01/29 13:07:46;;;;;;;;;;;;;;;0.46;54.38;98865.44;4911214;29;20285;-52
2023/01/29 13:10:17;;;;;;;;;;;;;;;0.62;53.99;98872.06;4911514;29;19939;-52
2023/01/29 13:12:51;;;;;;;;;;;;;;;0.66;53.48;98875.91;4914026;29;19931;-52
2023/01/29 13:15:22;;;;;;;;;;;;;;;0.39;53.94;98873.53;4904330;29;19935;-52
2023/01/29 13:17:51;;;;;;;;;;;;;;;0.23;54.04;98868.78;4910522;29;19934;-54
2023/01/29 13:20:20;;;;;;;;;;;;;;;0.30;54.32;98872.19;4922623;29;19931;-52
2023/01/29 13:22:48;;;;;;;;;;;;;;;0.25;54.98;98870.16;4911450;29;19967;-53
2023/01/29 13:25:18;;;;;;;;;;;;;;;0.16;55.27;98868.84;4911804;29;20257;-58
2023/01/29 13:27:46;;;;;;;;;;;;;;;0.25;55.43;98864.00;4910427;29;20014;-52
2023/01/29 13:30:25;;;;;;;;;;;;;;;0.13;55.81;98868.47;4913613;29;19978;-52
2023/01/29 13:32:53;;;;;;;;;;;;;;;-0.03;55.72;98859.97;4910074;29;19927;-52
2023/01/29 13:35:47;;;;;;;;;;;;;;;-0.05;56.15;98859.38;4912231;29;20483;-57
2023/01/29 13:38:23;;;;;;;;;;;;;;;0.04;55.21;98859.09;4927291;29;20404;-53
2023/01/29 13:40:52;;;;;;;;;;;;;;;-0.02;55.64;98861.59;4917781;29;19942;-53
2023/01/29 13:43:49;;;;;;;;;;;;;;;0.11;56.29;98854.50;4916449;29;19934;-52
2023/01/29 13:46:20;;;;;;;;;;;;;;;0.31;55.14;98846.28;4903248;29;19935;-52
2023/01/29 13:48:49;;;;;;;;;;;;;;;0.23;55.14;98847.41;4914227;29;19986;-52
2023/01/29 13:51:20;;;;;;;;;;;;;;;0.19;55.82;98847.00;4926221;29;19927;-52
2023/01/29 13:54:12;;;;;;;;;;;;;;;0.24;55.83;98846.34;4913332;29;20337;-53
2023/01/29 13:57:05;;;;;;;;;;;;;;;0.28;55.53;98841.38;4914265;29;20010;-52
2023/01/29 13:59:51;;;;;;;;;;;;;;;0.27;54.95;98848.59;4916617;29;19927;-53